Time;durP1;ratioP1;P1;durP2;ratioP2;P2;SDS_P1;SDS_P2;PMS_P1;PMS_P2;Temp;Humidity;BMP_temperature;BMP_pressure;BME280_temperature;BME280_humidity;BME280_pressure;Samples;Min_cycle;Max_cycle;Signal;HPM_P1;HPM_P2
2022/05/13 00:02:24;;;;;;;10.48;2.47;;;13.40;99.90;;;;;;5089169;28;20533;-83
2022/05/13 00:04:49;;;;;;;7.18;2.05;;;13.40;99.90;;;;;;5072297;28;20040;-83
2022/05/13 00:07:15;;;;;;;5.72;2.20;;;13.40;99.90;;;;;;5072371;28;20437;-81
2022/05/13 00:12:30;;;;;;;14.10;3.00;;;13.40;99.90;;;;;;5070592;28;20492;-82
2022/05/13 00:14:57;;;;;;;8.63;2.40;;;13.40;99.90;;;;;;5079631;28;20040;-82
2022/05/13 00:17:24;;;;;;;10.15;3.38;;;13.40;99.90;;;;;;5072137;28;20512;-84
2022/05/13 00:19:50;;;;;;;7.93;2.67;;;13.40;99.90;;;;;;5070145;28;20048;-82
2022/05/13 00:22:16;;;;;;;8.85;2.45;;;13.40;99.90;;;;;;5071930;28;20059;-83
2022/05/13 00:24:42;;;;;;;9.18;2.65;;;13.40;99.90;;;;;;5083538;28;20126;-82
2022/05/13 00:27:08;;;;;;;10.68;2.50;;;13.40;99.90;;;;;;5084320;28;20132;-82
2022/05/13 00:29:34;;;;;;;10.52;2.60;;;13.40;99.90;;;;;;5092471;28;20047;-81
2022/05/13 00:32:01;;;;;;;11.55;2.83;;;13.30;99.90;;;;;;5082171;28;20120;-83
2022/05/13 00:34:26;;;;;;;9.60;2.75;;;13.30;99.90;;;;;;5075759;28;20048;-81
2022/05/13 00:36:52;;;;;;;5.82;2.40;;;13.30;99.90;;;;;;5066192;28;20053;-81
2022/05/13 00:39:19;;;;;;;12.45;2.88;;;13.30;99.90;;;;;;5092265;28;20070;-83
2022/05/13 00:41:46;;;;;;;14.98;3.00;;;13.30;99.90;;;;;;5067815;28;20044;-82
2022/05/13 00:44:12;;;;;;;6.53;2.63;;;13.30;99.90;;;;;;5085178;28;20040;-81
2022/05/13 00:46:38;;;;;;;10.57;2.45;;;13.30;99.90;;;;;;5083099;28;20092;-80
2022/05/13 00:49:09;;;;;;;9.27;2.63;;;13.30;99.90;;;;;;5067872;28;20041;-80
2022/05/13 00:51:41;;;;;;;10.53;2.93;;;13.30;99.90;;;;;;5097018;28;20486;-81
2022/05/13 00:54:11;;;;;;;7.35;2.33;;;13.30;99.90;;;;;;5067311;28;20313;-83
2022/05/13 00:56:40;;;;;;;8.98;3.33;;;13.30;99.90;;;;;;5079503;28;20097;-80
2022/05/13 00:59:08;;;;;;;13.13;2.90;;;13.30;99.90;;;;;;5067912;28;20369;-80
2022/05/13 01:01:33;;;;;;;9.13;2.80;;;13.20;99.90;;;;;;5082184;28;20395;-81
2022/05/13 01:04:09;;;;;;;10.02;2.78;;;13.20;99.90;;;;;;5082354;28;20051;-81
2022/05/13 01:06:35;;;;;;;13.80;2.58;;;13.20;99.90;;;;;;5074255;28;20472;-84
2022/05/13 01:09:01;;;;;;;9.63;2.53;;;13.20;99.90;;;;;;5081083;28;20047;-81
2022/05/13 01:11:30;;;;;;;9.75;2.35;;;13.20;99.90;;;;;;5092061;28;20586;-82
2022/05/13 01:14:01;;;;;;;11.43;3.25;;;13.20;99.90;;;;;;5106774;28;20051;-81
2022/05/13 01:16:27;;;;;;;8.40;2.40;;;13.20;99.90;;;;;;5095984;28;20514;-81
2022/05/13 01:18:53;;;;;;;9.98;2.55;;;13.10;99.90;;;;;;5095771;28;20102;-80
2022/05/13 01:21:25;;;;;;;10.40;2.40;;;13.10;99.90;;;;;;5073047;28;20380;-82
2022/05/13 01:23:52;;;;;;;8.02;2.70;;;13.10;99.90;;;;;;5071902;28;20169;-81
2022/05/13 01:26:22;;;;;;;11.60;3.17;;;13.10;99.90;;;;;;5084488;28;20044;-81
2022/05/13 01:28:51;;;;;;;13.32;3.53;;;13.10;99.90;;;;;;5066166;28;20436;-81
2022/05/13 01:31:32;;;;;;;12.57;2.92;;;13.10;99.90;;;;;;5068923;28;20043;-82
2022/05/13 01:33:59;;;;;;;8.93;2.45;;;13.10;99.90;;;;;;5083178;28;20498;-81
2022/05/13 01:36:26;;;;;;;18.70;4.07;;;13.10;99.90;;;;;;5058381;28;20056;-81
2022/05/13 01:38:52;;;;;;;8.82;3.30;;;13.10;99.90;;;;;;5063944;28;20037;-82
2022/05/13 01:41:18;;;;;;;10.35;3.05;;;13.10;99.90;;;;;;5062925;28;20051;-81
2022/05/13 01:43:45;;;;;;;11.20;2.63;;;13.10;99.90;;;;;;5077603;28;20180;-82
2022/05/13 01:46:11;;;;;;;9.52;2.63;;;13.10;99.90;;;;;;5087729;28;20131;-83
2022/05/13 01:48:38;;;;;;;10.68;2.78;;;13.10;99.90;;;;;;5060426;28;20124;-81
2022/05/13 01:51:04;;;;;;;12.52;3.25;;;13.10;99.90;;;;;;5056662;28;20043;-81
2022/05/13 01:53:30;;;;;;;10.98;2.72;;;13.10;99.90;;;;;;5062208;28;20040;-81
2022/05/13 01:55:56;;;;;;;11.88;3.25;;;13.10;99.90;;;;;;5068811;28;20051;-79
2022/05/13 01:58:24;;;;;;;10.13;2.92;;;13.20;99.90;;;;;;5067699;28;20036;-80
2022/05/13 02:00:52;;;;;;;13.65;3.55;;;13.20;99.90;;;;;;5047557;28;20333;-81
2022/05/13 02:06:04;;;;;;;12.18;3.42;;;13.20;99.90;;;;;;5051868;28;20044;-83
2022/05/13 02:08:30;;;;;;;15.63;3.83;;;13.20;99.90;;;;;;5067932;28;20051;-81
2022/05/13 02:10:56;;;;;;;13.20;3.53;;;13.30;99.90;;;;;;5048912;28;20032;-80
2022/05/13 02:13:22;;;;;;;10.70;2.92;;;13.20;99.90;;;;;;5071626;28;20539;-80
2022/05/13 02:15:48;;;;;;;16.77;3.97;;;13.20;99.90;;;;;;5067754;28;20479;-78
2022/05/13 02:18:14;;;;;;;12.52;3.50;;;13.20;99.90;;;;;;5049023;28;20066;-80
2022/05/13 02:20:40;;;;;;;11.00;3.40;;;13.10;99.90;;;;;;5049185;28;20048;-80
2022/05/13 02:23:06;;;;;;;15.35;4.30;;;13.10;99.90;;;;;;5046845;28;20036;-83
2022/05/13 02:25:33;;;;;;;12.45;3.60;;;13.10;99.90;;;;;;5065532;28;20046;-80
2022/05/13 02:28:00;;;;;;;12.30;3.10;;;13.10;99.90;;;;;;5048845;28;20162;-81
2022/05/13 02:30:27;;;;;;;16.13;4.15;;;13.10;99.90;;;;;;5052651;28;20056;-81
2022/05/13 02:32:53;;;;;;;15.68;4.07;;;13.10;99.90;;;;;;5067905;28;20198;-80
2022/05/13 02:35:19;;;;;;;11.55;3.95;;;13.10;99.90;;;;;;5050921;28;20139;-81
2022/05/13 02:37:45;;;;;;;15.05;3.25;;;13.10;99.90;;;;;;5074177;28;20568;-81
2022/05/13 02:40:11;;;;;;;12.73;3.83;;;13.10;99.90;;;;;;5047526;28;20080;-81
2022/05/13 02:42:37;;;;;;;15.55;4.25;;;13.10;99.90;;;;;;5032134;28;20034;-81
2022/05/13 02:45:05;;;;;;;20.63;4.35;;;13.10;99.90;;;;;;5055748;28;20067;-81
2022/05/13 02:47:30;;;;;;;11.52;3.42;;;13.10;99.90;;;;;;5071353;28;20040;-82
2022/05/13 02:52:40;;;;;;;11.15;3.00;;;13.10;99.90;;;;;;5040139;28;20056;-81
2022/05/13 02:55:06;;;;;;;16.52;4.30;;;13.10;99.90;;;;;;5048049;28;20040;-82
2022/05/13 02:57:32;;;;;;;13.18;3.63;;;13.10;99.90;;;;;;5055815;28;20041;-79
2022/05/13 02:59:59;;;;;;;14.57;3.97;;;13.10;99.90;;;;;;5080955;28;20114;-80
2022/05/13 03:02:25;;;;;;;25.50;4.20;;;13.10;99.90;;;;;;5047962;28;20050;-80
2022/05/13 03:04:51;;;;;;;14.45;3.90;;;13.20;99.90;;;;;;5049219;28;20045;-81
2022/05/13 03:07:16;;;;;;;20.63;4.07;;;13.10;99.90;;;;;;5035211;28;20103;-79
2022/05/13 03:09:42;;;;;;;14.93;4.28;;;13.10;99.90;;;;;;5069216;28;20160;-82
2022/05/13 03:12:08;;;;;;;17.88;3.97;;;13.10;99.90;;;;;;5066442;28;20561;-81
2022/05/13 03:14:34;;;;;;;15.60;4.50;;;13.10;99.90;;;;;;5054472;28;20138;-81
2022/05/13 03:16:59;;;;;;;14.70;3.75;;;13.10;99.90;;;;;;5048197;28;20661;-81
2022/05/13 03:19:25;;;;;;;13.15;4.05;;;13.10;99.90;;;;;;5051158;28;20045;-83
2022/05/13 03:21:50;;;;;;;15.82;4.70;;;13.10;99.90;;;;;;5046151;28;20660;-82
2022/05/13 03:24:16;;;;;;;19.88;5.28;;;13.10;99.90;;;;;;5059111;28;20055;-81
2022/05/13 03:26:44;;;;;;;16.50;5.05;;;13.10;99.90;;;;;;5028445;28;20045;-81
2022/05/13 03:29:11;;;;;;;20.38;3.63;;;13.10;99.90;;;;;;5067769;28;20129;-84
2022/05/13 03:31:37;;;;;;;17.00;3.58;;;13.10;99.90;;;;;;5049518;28;20045;-81
2022/05/13 03:34:02;;;;;;;16.85;3.95;;;13.10;99.90;;;;;;5050851;28;20048;-80
2022/05/13 03:36:29;;;;;;;19.73;3.67;;;13.10;99.90;;;;;;5045523;28;20044;-83
2022/05/13 03:38:55;;;;;;;14.35;3.60;;;13.10;99.90;;;;;;5057043;28;20044;-81
2022/05/13 03:41:21;;;;;;;12.77;3.42;;;13.00;99.90;;;;;;5049397;28;20040;-81
2022/05/13 03:43:47;;;;;;;19.40;4.38;;;13.00;99.90;;;;;;5056940;28;20116;-81
2022/05/13 03:46:12;;;;;;;19.13;4.13;;;13.00;99.90;;;;;;5057909;28;20128;-82
2022/05/13 03:48:38;;;;;;;20.13;4.57;;;13.00;99.90;;;;;;5071136;28;20086;-80
2022/05/13 03:51:04;;;;;;;19.40;4.53;;;13.10;99.90;;;;;;5081954;28;20048;-81
2022/05/13 03:53:29;;;;;;;17.73;3.85;;;13.10;99.90;;;;;;5084737;28;20084;-81
2022/05/13 03:55:55;;;;;;;14.18;4.05;;;13.10;99.90;;;;;;5092881;28;20036;-82
2022/05/13 03:58:21;;;;;;;18.90;4.45;;;13.10;99.90;;;;;;5101297;28;20407;-82
2022/05/13 04:00:46;;;;;;;13.65;3.42;;;13.10;99.90;;;;;;5073510;28;20036;-82
2022/05/13 04:03:13;;;;;;;15.45;3.50;;;13.10;99.90;;;;;;5090395;28;20035;-84
2022/05/13 04:11:07;;;;;;;15.60;4.18;;;13.10;99.90;;;;;;5087739;28;20039;-80
2022/05/13 04:16:17;;;;;;;16.30;3.40;;;13.10;99.90;;;;;;5093627;28;20115;-81
2022/05/13 04:18:47;;;;;;;10.82;4.28;;;13.20;99.90;;;;;;5075297;28;20467;-81
2022/05/13 04:21:22;;;;;;;16.60;3.70;;;13.10;99.90;;;;;;5104871;28;20036;-81
2022/05/13 04:23:49;;;;;;;17.80;4.07;;;13.10;99.90;;;;;;5081067;28;20138;-83
2022/05/13 04:26:16;;;;;;;16.85;4.30;;;13.10;99.90;;;;;;5073223;28;20461;-81
2022/05/13 04:28:44;;;;;;;18.05;4.50;;;13.10;99.90;;;;;;5074172;28;20063;-81
2022/05/13 04:31:11;;;;;;;17.95;3.80;;;13.10;99.90;;;;;;5071580;28;20032;-81
2022/05/13 04:33:38;;;;;;;14.90;4.20;;;13.00;99.90;;;;;;5083433;28;20146;-81
2022/05/13 04:36:04;;;;;;;16.80;3.67;;;13.10;99.90;;;;;;5073293;28;20458;-82
2022/05/13 04:38:30;;;;;;;15.32;4.00;;;13.10;99.90;;;;;;5085702;28;20504;-81
2022/05/13 04:40:56;;;;;;;12.90;4.88;;;13.10;99.90;;;;;;5089414;28;20040;-81
2022/05/13 04:43:21;;;;;;;24.02;5.22;;;13.10;99.90;;;;;;5077594;28;20040;-82
2022/05/13 04:45:47;;;;;;;18.30;4.45;;;13.10;99.90;;;;;;5076020;28;20051;-81
2022/05/13 04:48:16;;;;;;;16.35;3.72;;;13.10;99.90;;;;;;5089004;28;20068;-82
2022/05/13 04:50:44;;;;;;;23.00;4.30;;;13.10;99.90;;;;;;5052526;28;20064;-80
2022/05/13 04:53:10;;;;;;;19.73;4.95;;;13.20;99.90;;;;;;5051468;28;20093;-82
2022/05/13 04:55:37;;;;;;;18.77;4.35;;;13.20;99.90;;;;;;5050398;28;20041;-82
2022/05/13 04:58:04;;;;;;;15.95;4.05;;;13.20;99.90;;;;;;5067172;28;20680;-81
2022/05/13 05:00:30;;;;;;;16.27;4.25;;;13.20;99.90;;;;;;5065161;28;20144;-80
2022/05/13 05:02:56;;;;;;;21.58;3.38;;;13.20;99.90;;;;;;5062959;28;20060;-80
2022/05/13 05:05:22;;;;;;;16.08;4.55;;;13.20;99.90;;;;;;5066892;28;20121;-80
2022/05/13 05:07:48;;;;;;;17.15;3.75;;;13.30;99.90;;;;;;5062200;28;20033;-81
2022/05/13 05:10:14;;;;;;;15.27;3.80;;;13.30;99.90;;;;;;5065225;28;20156;-81
2022/05/13 05:12:40;;;;;;;15.23;3.55;;;13.30;99.90;;;;;;5067200;28;20033;-81
2022/05/13 05:15:07;;;;;;;19.00;4.22;;;13.30;99.90;;;;;;5054144;28;20202;-80
2022/05/13 05:17:32;;;;;;;17.70;4.00;;;13.40;99.90;;;;;;5048503;28;20100;-79
2022/05/13 05:19:58;;;;;;;15.57;3.60;;;13.40;99.90;;;;;;5060585;28;20466;-80
2022/05/13 05:22:23;;;;;;;19.10;3.65;;;13.40;99.90;;;;;;5041998;28;20036;-80
2022/05/13 05:24:49;;;;;;;15.32;3.72;;;13.40;99.90;;;;;;5045413;28;20506;-80
2022/05/13 05:27:15;;;;;;;22.08;3.22;;;13.40;99.90;;;;;;5061548;28;20131;-81
2022/05/13 05:29:42;;;;;;;18.88;3.63;;;13.50;99.90;;;;;;5066073;28;20066;-81
2022/05/13 05:32:08;;;;;;;16.73;3.25;;;13.50;99.90;;;;;;5064385;28;20039;-81
2022/05/13 05:34:34;;;;;;;13.65;3.47;;;13.50;99.90;;;;;;5055062;28;20535;-81
2022/05/13 05:37:00;;;;;;;10.90;2.95;;;13.50;99.90;;;;;;5067173;28;20078;-79
2022/05/13 05:39:25;;;;;;;17.15;2.83;;;13.60;99.90;;;;;;5067673;28;20040;-81
2022/05/13 05:41:51;;;;;;;9.05;2.17;;;13.60;99.90;;;;;;5065596;28;20083;-81
2022/05/13 05:44:16;;;;;;;13.10;2.88;;;13.60;99.90;;;;;;5066531;28;20067;-81
2022/05/13 05:46:42;;;;;;;15.90;3.08;;;13.70;99.90;;;;;;5051114;28;20053;-82
2022/05/13 05:49:08;;;;;;;13.38;2.70;;;13.80;99.90;;;;;;5068427;28;20068;-82
2022/05/13 05:51:33;;;;;;;9.15;1.80;;;13.70;99.90;;;;;;5055110;28;20127;-81
2022/05/13 05:59:27;;;;;;;8.27;2.65;;;13.80;99.90;;;;;;5065073;28;20047;-77
2022/05/13 06:01:53;;;;;;;12.27;2.40;;;13.80;99.90;;;;;;5078693;28;20051;-76
2022/05/13 06:04:20;;;;;;;8.48;2.17;;;13.80;99.90;;;;;;5070566;28;20531;-76
2022/05/13 06:06:45;;;;;;;8.13;2.30;;;13.80;99.90;;;;;;5074580;28;20052;-76
2022/05/13 06:09:11;;;;;;;8.52;2.35;;;13.80;99.90;;;;;;5065641;28;20043;-76
2022/05/13 06:11:37;;;;;;;11.82;2.42;;;13.80;99.90;;;;;;5067611;28;20051;-77
2022/05/13 06:14:03;;;;;;;8.13;2.08;;;13.80;99.90;;;;;;5085407;28;20468;-75
2022/05/13 06:16:30;;;;;;;9.02;2.45;;;13.90;99.90;;;;;;5080293;28;20431;-76
2022/05/13 06:19:00;;;;;;;9.35;2.28;;;13.90;99.90;;;;;;5086528;28;20075;-75
2022/05/13 06:21:26;;;;;;;9.57;2.25;;;13.90;99.90;;;;;;5089150;28;20067;-76
2022/05/13 06:23:52;;;;;;;11.40;2.10;;;13.90;99.90;;;;;;5081316;28;20056;-76
2022/05/13 06:26:18;;;;;;;14.20;2.50;;;14.00;99.90;;;;;;5083225;28;20042;-75
2022/05/13 06:28:43;;;;;;;11.75;2.47;;;14.00;99.90;;;;;;5086658;28;20063;-76
2022/05/13 06:31:09;;;;;;;8.50;2.15;;;14.00;99.90;;;;;;5087176;28;20617;-75
2022/05/13 06:33:35;;;;;;;9.82;2.63;;;14.00;99.90;;;;;;5085639;28;20094;-74
2022/05/13 06:36:01;;;;;;;7.32;1.88;;;13.90;99.90;;;;;;5089168;28;20048;-75
2022/05/13 06:38:26;;;;;;;8.98;2.13;;;14.00;99.90;;;;;;5075077;28;20483;-75
2022/05/13 06:40:54;;;;;;;18.83;2.95;;;13.90;99.90;;;;;;5074391;28;20484;-75
2022/05/13 06:43:21;;;;;;;11.48;2.53;;;14.00;99.90;;;;;;5050075;28;20138;-75
2022/05/13 06:45:47;;;;;;;6.15;2.03;;;14.00;99.90;;;;;;5079341;28;20452;-75
2022/05/13 06:48:13;;;;;;;12.18;2.50;;;14.00;99.90;;;;;;5046279;28;20067;-76
2022/05/13 06:50:42;;;;;;;8.15;1.90;;;14.00;99.90;;;;;;5087931;28;20198;-76
2022/05/13 06:53:08;;;;;;;10.98;2.45;;;14.10;99.90;;;;;;5080205;28;20044;-76
2022/05/13 06:55:33;;;;;;;7.57;2.17;;;14.10;99.90;;;;;;5068210;28;20569;-76
2022/05/13 06:57:59;;;;;;;6.95;1.98;;;14.20;99.90;;;;;;5083782;28;20047;-76
2022/05/13 07:00:25;;;;;;;10.23;1.90;;;14.20;99.90;;;;;;5074834;28;20040;-76
2022/05/13 07:02:50;;;;;;;7.55;1.95;;;14.30;99.90;;;;;;5059096;28;20483;-76
2022/05/13 07:05:17;;;;;;;10.80;2.80;;;14.30;99.90;;;;;;5076569;28;20037;-75
2022/05/13 07:07:43;;;;;;;5.15;1.92;;;14.40;99.90;;;;;;5068635;28;20119;-76
2022/05/13 07:10:09;;;;;;;8.48;2.45;;;14.40;99.90;;;;;;5077398;28;20100;-76
2022/05/13 07:12:36;;;;;;;14.63;2.47;;;14.50;99.90;;;;;;5060482;28;20044;-76
2022/05/13 07:15:04;;;;;;;11.82;2.15;;;14.60;99.90;;;;;;5087321;28;20056;-76
2022/05/13 07:17:30;;;;;;;14.00;2.00;;;14.60;99.90;;;;;;5087622;28;20149;-76
2022/05/13 07:19:55;;;;;;;13.25;2.65;;;14.70;99.90;;;;;;5091361;28;20083;-76
2022/05/13 07:22:22;;;;;;;8.90;2.28;;;14.60;99.90;;;;;;5091728;28;20081;-76
2022/05/13 07:24:48;;;;;;;9.98;2.03;;;14.60;99.90;;;;;;5085565;28;20028;-76
2022/05/13 07:27:13;;;;;;;9.75;2.45;;;14.60;99.90;;;;;;5070531;28;20458;-76
2022/05/13 07:29:39;;;;;;;10.23;1.98;;;14.70;99.90;;;;;;5089204;28;20368;-76
2022/05/13 07:32:05;;;;;;;5.45;1.65;;;14.70;99.90;;;;;;5092411;28;20142;-75
2022/05/13 07:34:31;;;;;;;9.73;2.28;;;14.70;99.90;;;;;;5082525;28;20123;-75
2022/05/13 07:36:57;;;;;;;9.98;2.58;;;14.70;99.90;;;;;;5084933;28;20126;-76
2022/05/13 07:42:11;;;;;;;7.95;2.67;;;14.80;99.90;;;;;;5068003;28;20049;-75
2022/05/13 07:44:37;;;;;;;11.93;2.13;;;14.90;99.90;;;;;;5072878;28;20504;-75
2022/05/13 07:47:05;;;;;;;8.35;2.00;;;15.00;99.90;;;;;;5070503;28;20056;-76
2022/05/13 07:49:31;;;;;;;9.07;1.95;;;15.10;99.90;;;;;;5072339;28;20056;-75
2022/05/13 07:51:57;;;;;;;9.05;1.98;;;15.00;99.90;;;;;;5091857;28;20082;-76
2022/05/13 07:54:23;;;;;;;8.30;1.75;;;15.10;99.90;;;;;;5090778;28;20079;-76
2022/05/13 07:56:48;;;;;;;10.75;2.10;;;15.10;99.90;;;;;;5065277;28;20036;-76
2022/05/13 07:59:14;;;;;;;9.48;2.72;;;15.00;99.90;;;;;;5081670;28;20463;-76
2022/05/13 08:01:39;;;;;;;12.77;1.95;;;15.00;99.90;;;;;;5091534;28;20042;-76
2022/05/13 08:04:05;;;;;;;7.28;1.73;;;15.10;99.90;;;;;;5087854;28;20483;-75
2022/05/13 08:06:32;;;;;;;7.00;1.70;;;15.10;99.90;;;;;;5078910;28;20075;-76
2022/05/13 08:08:58;;;;;;;6.03;1.70;;;15.00;99.90;;;;;;5088963;28;20048;-79
2022/05/13 08:11:25;;;;;;;7.90;2.08;;;15.00;99.90;;;;;;5091597;28;20063;-76
2022/05/13 08:13:52;;;;;;;8.45;1.98;;;15.00;99.90;;;;;;5070341;28;20115;-77
2022/05/13 08:16:23;;;;;;;6.75;2.00;;;15.00;99.90;;;;;;5087974;28;20173;-77
2022/05/13 08:18:49;;;;;;;9.27;1.70;;;15.00;99.90;;;;;;5060055;28;20049;-77
2022/05/13 08:21:14;;;;;;;4.85;1.85;;;15.00;99.90;;;;;;5071703;28;20044;-75
2022/05/13 08:23:43;;;;;;;12.00;2.10;;;15.00;99.90;;;;;;5089841;28;20036;-75
2022/05/13 08:26:09;;;;;;;7.85;2.10;;;15.00;99.90;;;;;;5068737;28;20051;-77
2022/05/13 08:28:35;;;;;;;9.45;1.77;;;15.00;99.90;;;;;;5090050;28;20040;-76
2022/05/13 08:31:01;;;;;;;14.43;2.45;;;15.00;99.90;;;;;;5070844;28;20040;-76
2022/05/13 08:33:26;;;;;;;6.90;1.88;;;15.00;99.90;;;;;;5090684;28;20117;-76
2022/05/13 08:35:56;;;;;;;7.47;1.50;;;15.00;99.90;;;;;;5087410;28;20552;-76
2022/05/13 08:38:25;;;;;;;8.20;1.77;;;15.10;99.90;;;;;;5069720;28;20048;-76
2022/05/13 08:40:59;;;;;;;12.57;2.20;;;15.10;99.90;;;;;;5052920;28;20056;-76
2022/05/13 08:43:30;;;;;;;9.13;2.05;;;15.10;99.90;;;;;;5059127;28;20041;-77
2022/05/13 08:46:19;;;;;;;5.43;1.60;;;15.10;99.90;;;;;;5084825;28;20037;-77
2022/05/13 08:48:53;;;;;;;8.23;1.83;;;15.20;99.90;;;;;;5088261;28;20070;-77
2022/05/13 08:51:46;;;;;;;13.05;2.10;;;15.20;99.90;;;;;;5057578;28;20056;-77
2022/05/13 08:54:16;;;;;;;12.10;5.47;;;15.30;99.90;;;;;;5070240;28;20075;-78
2022/05/13 08:56:47;;;;;;;7.70;3.55;;;15.30;99.90;;;;;;5090640;28;20043;-77
2022/05/13 08:59:21;;;;;;;13.02;3.28;;;15.40;99.90;;;;;;5070140;28;20151;-78
2022/05/13 09:01:54;;;;;;;7.97;2.40;;;15.40;99.90;;;;;;5072447;28;20067;-77
2022/05/13 09:04:35;;;;;;;6.18;1.90;;;15.40;99.90;;;;;;5062830;28;20055;-77
2022/05/13 09:07:05;;;;;;;8.07;2.00;;;15.40;99.90;;;;;;5089683;28;20139;-79
2022/05/13 09:09:32;;;;;;;4.07;1.25;;;15.30;99.90;;;;;;5050980;28;20155;-77
2022/05/13 09:12:09;;;;;;;4.53;1.70;;;15.30;99.90;;;;;;5082976;28;20044;-77
2022/05/13 09:14:45;;;;;;;11.23;1.95;;;15.50;99.90;;;;;;5086898;28;20036;-76
2022/05/13 09:17:39;;;;;;;8.75;1.73;;;15.60;99.90;;;;;;5079908;28;20040;-75
2022/05/13 09:20:17;;;;;;;4.60;1.60;;;15.60;99.90;;;;;;5082086;28;20110;-74
2022/05/13 09:22:52;;;;;;;7.60;1.52;;;15.60;99.90;;;;;;5071673;28;20155;-74
2022/05/13 09:25:45;;;;;;;4.32;1.38;;;15.60;99.90;;;;;;5088713;28;20040;-75
2022/05/13 09:28:14;;;;;;;10.00;1.48;;;15.60;99.90;;;;;;5069265;28;20036;-75
2022/05/13 09:30:43;;;;;;;9.85;1.73;;;15.60;99.90;;;;;;5085038;28;20480;-74
2022/05/13 09:33:35;;;;;;;4.35;1.20;;;15.70;99.90;;;;;;5069712;28;20037;-74
2022/05/13 09:36:03;;;;;;;4.22;1.67;;;15.70;99.90;;;;;;5069411;28;20036;-75
2022/05/13 09:38:31;;;;;;;9.43;2.10;;;15.60;99.90;;;;;;5081917;28;20093;-71
2022/05/13 09:41:02;;;;;;;11.50;1.77;;;15.60;99.90;;;;;;5078050;28;20059;-75
2022/05/13 09:43:38;;;;;;;6.18;1.65;;;15.70;99.90;;;;;;5076011;28;20040;-74
2022/05/13 09:46:10;;;;;;;7.40;1.38;;;15.70;99.90;;;;;;5089964;28;20048;-75
2022/05/13 09:48:58;;;;;;;6.50;1.17;;;15.70;99.90;;;;;;5063364;28;20610;-75
2022/05/13 09:51:35;;;;;;;6.47;1.42;;;15.70;99.90;;;;;;5086213;28;20048;-74
2022/05/13 09:54:15;;;;;;;7.90;1.38;;;15.70;99.90;;;;;;5086341;28;20058;-75
2022/05/13 09:56:53;;;;;;;3.90;1.00;;;15.60;99.90;;;;;;5067416;28;20064;-75
2022/05/13 09:59:25;;;;;;;6.00;1.10;;;15.60;99.90;;;;;;5079319;28;20040;-76
2022/05/13 10:01:52;;;;;;;7.47;1.20;;;15.60;99.80;;;;;;5082462;28;20063;-76
2022/05/13 10:04:23;;;;;;;5.38;1.23;;;15.60;99.80;;;;;;5081570;28;20043;-75
2022/05/13 10:07:01;;;;;;;7.75;1.60;;;15.50;99.50;;;;;;5054688;28;20040;-77
2022/05/13 10:15:34;;;;;;;8.07;1.23;;;15.60;99.90;;;;;;5071678;28;20135;-75
2022/05/13 10:18:12;;;;;;;6.30;1.30;;;15.70;99.90;;;;;;5082679;28;20052;-75
2022/05/13 10:20:43;;;;;;;12.43;1.85;;;15.80;99.90;;;;;;5050717;28;20127;-76
2022/05/13 10:23:27;;;;;;;8.48;1.73;;;15.90;99.70;;;;;;5080410;28;20043;-76
2022/05/13 10:26:04;;;;;;;6.65;1.40;;;15.90;99.50;;;;;;5081658;28;20375;-75
2022/05/13 10:28:55;;;;;;;6.13;1.55;;;16.00;99.40;;;;;;5063242;28;20039;-76
2022/05/13 10:31:25;;;;;;;12.18;2.10;;;16.10;99.20;;;;;;5083448;28;20048;-75
2022/05/13 10:34:27;;;;;;;7.63;2.00;;;16.10;99.00;;;;;;5070337;28;20141;-76
2022/05/13 10:36:59;;;;;;;6.00;1.27;;;16.10;99.00;;;;;;5080420;28;20040;-75
2022/05/13 10:39:43;;;;;;;;;;;16.20;99.30;;;;;;5070199;28;20039;-77
2022/05/13 10:42:19;;;;;;;3.45;1.20;;;16.30;99.30;;;;;;5068539;28;19920;-76
2022/05/13 10:44:48;;;;;;;4.70;1.20;;;16.40;99.00;;;;;;5086805;28;20047;-76
2022/05/13 10:47:20;;;;;;;8.32;1.30;;;16.50;98.80;;;;;;5078958;28;20752;-77
2022/05/13 10:49:46;;;;;;;7.72;1.40;;;16.60;98.40;;;;;;5082900;28;20055;-75
2022/05/13 10:52:32;;;;;;;6.53;1.50;;;16.70;98.20;;;;;;5061742;28;20506;-77
2022/05/13 10:55:13;;;;;;;7.38;1.70;;;16.90;97.60;;;;;;5063758;28;20135;-75
2022/05/13 10:58:09;;;;;;;6.18;1.60;;;16.90;97.30;;;;;;5071260;28;20131;-75
2022/05/13 11:00:49;;;;;;;10.73;1.77;;;17.00;97.50;;;;;;5082562;28;20177;-74
2022/05/13 11:03:35;;;;;;;8.95;1.75;;;17.10;97.50;;;;;;5077812;28;20036;-74
2022/05/13 11:06:07;;;;;;;3.55;1.13;;;17.30;97.20;;;;;;5071707;28;20033;-74
2022/05/13 11:09:08;;;;;;;4.63;1.25;;;17.40;97.00;;;;;;5057283;28;20400;-74
2022/05/13 11:11:43;;;;;;;9.73;1.83;;;17.40;96.60;;;;;;5070385;28;20102;-75
2022/05/13 11:14:45;;;;;;;6.80;1.23;;;17.30;96.00;;;;;;5084225;28;20119;-74
2022/05/13 11:17:35;;;;;;;8.57;1.60;;;17.20;95.70;;;;;;5089230;28;20131;-74
2022/05/13 11:20:28;;;;;;;11.50;1.92;;;17.10;95.40;;;;;;5069660;28;20127;-74
2022/05/13 11:23:06;;;;;;;8.68;1.70;;;17.10;95.30;;;;;;5077423;28;20040;-75
2022/05/13 11:25:56;;;;;;;7.20;1.38;;;16.90;95.40;;;;;;5074387;28;20048;-78
2022/05/13 11:28:34;;;;;;;5.30;1.20;;;16.90;95.40;;;;;;5087001;28;20048;-77
2022/05/13 11:31:11;;;;;;;7.05;1.45;;;16.80;95.60;;;;;;5083029;28;20127;-74
2022/05/13 11:33:58;;;;;;;6.03;1.35;;;16.70;95.60;;;;;;5057785;28;20089;-75
2022/05/13 11:36:45;;;;;;;7.05;1.50;;;16.70;95.70;;;;;;5085687;28;20116;-75
2022/05/13 11:39:29;;;;;;;7.57;1.45;;;16.60;95.80;;;;;;5073594;28;20127;-74
2022/05/13 11:42:10;;;;;;;11.95;2.88;;;16.60;96.00;;;;;;5072121;28;20047;-74
2022/05/13 11:45:16;;;;;;;7.35;2.35;;;16.60;96.30;;;;;;5073710;28;20123;-75
2022/05/13 11:48:12;;;;;;;6.80;1.50;;;16.60;96.20;;;;;;5072310;28;20055;-75
2022/05/13 11:50:38;;;;;;;5.75;1.65;;;16.70;96.30;;;;;;5071554;28;20063;-75
2022/05/13 11:53:04;;;;;;;6.22;1.90;;;16.70;96.50;;;;;;5089896;28;20040;-75
2022/05/13 11:55:32;;;;;;;7.25;2.22;;;16.80;96.50;;;;;;5088715;28;20047;-76
2022/05/13 11:57:58;;;;;;;10.40;1.90;;;16.80;96.30;;;;;;5090179;28;20068;-75
2022/05/13 12:00:24;;;;;;;6.90;2.13;;;16.90;96.40;;;;;;5091377;28;20490;-75
2022/05/13 12:03:01;;;;;;;9.75;1.75;;;16.90;96.30;;;;;;5090273;28;20101;-75
2022/05/13 12:05:32;;;;;;;10.20;2.40;;;16.90;95.90;;;;;;5071512;28;20059;-75
2022/05/13 12:08:01;;;;;;;6.97;1.77;;;16.90;95.80;;;;;;5073290;28;20306;-75
2022/05/13 12:10:50;;;;;;;10.00;2.25;;;16.90;95.90;;;;;;5072678;28;20055;-75
2022/05/13 12:13:53;;;;;;;6.75;1.13;;;16.90;95.60;;;;;;5089364;28;20263;-75
2022/05/13 12:16:37;;;;;;;6.85;1.58;;;16.90;95.60;;;;;;5052397;28;20101;-75
2022/05/13 12:19:29;;;;;;;8.07;1.80;;;16.80;95.40;;;;;;5054736;28;20079;-74
2022/05/13 12:22:19;;;;;;;9.80;1.67;;;16.80;95.20;;;;;;5071361;28;20059;-75
2022/05/13 12:24:55;;;;;;;8.75;1.80;;;16.80;95.40;;;;;;5054437;28;20036;-75
2022/05/13 12:27:34;;;;;;;6.20;2.05;;;16.90;95.70;;;;;;5070771;28;20052;-75
2022/05/13 12:30:33;;;;;;;10.88;1.88;;;16.90;95.40;;;;;;5088485;28;20071;-74
2022/05/13 12:33:23;;;;;;;8.15;1.40;;;17.00;95.40;;;;;;5066715;28;20052;-75
2022/05/13 12:39:17;;;;;;;10.07;2.10;;;17.20;95.50;;;;;;5045260;28;20045;-75
2022/05/13 12:41:46;;;;;;;8.05;1.90;;;17.20;95.20;;;;;;5018689;28;20045;-77
2022/05/13 12:44:32;;;;;;;5.90;2.05;;;17.20;95.30;;;;;;5046193;28;20335;-75
2022/05/13 12:47:14;;;;;;;9.02;2.08;;;17.20;95.30;;;;;;5068162;28;20433;-76
2022/05/13 12:49:48;;;;;;;9.82;1.90;;;17.20;95.30;;;;;;5083700;28;20063;-75
2022/05/13 12:52:22;;;;;;;6.50;1.52;;;17.20;95.50;;;;;;5080203;28;20094;-75
2022/05/13 12:55:21;;;;;;;8.43;1.58;;;17.40;95.00;;;;;;5083599;28;20132;-74
2022/05/13 12:57:50;;;;;;;6.70;1.50;;;17.60;95.00;;;;;;5076598;28;20124;-74
2022/05/13 13:00:19;;;;;;;10.32;1.40;;;17.70;94.30;;;;;;5088018;28;20040;-76
2022/05/13 13:02:50;;;;;;;8.52;1.65;;;17.80;93.50;;;;;;5089350;28;20044;-75
2022/05/13 13:05:22;;;;;;;7.38;1.70;;;17.90;93.30;;;;;;5071693;28;20063;-76
2022/05/13 13:07:52;;;;;;;9.73;2.25;;;17.90;93.30;;;;;;5089903;28;20123;-75
2022/05/13 13:10:18;;;;;;;9.73;1.73;;;18.10;94.00;;;;;;5080164;28;20070;-75
2022/05/13 13:12:59;;;;;;;11.45;2.17;;;18.30;94.50;;;;;;5087349;28;20058;-75
2022/05/13 13:15:30;;;;;;;13.33;2.00;;;18.40;94.10;;;;;;5090232;28;20079;-74
2022/05/13 13:17:59;;;;;;;12.30;3.20;;;18.40;93.70;;;;;;5088426;28;20563;-75
2022/05/13 13:20:31;;;;;;;9.15;1.90;;;18.40;93.30;;;;;;5086415;28;20120;-75
2022/05/13 13:23:02;;;;;;;10.00;1.80;;;18.30;92.70;;;;;;5085415;28;20043;-74
2022/05/13 13:25:40;;;;;;;7.28;1.50;;;18.30;92.50;;;;;;5086736;28;20040;-75
2022/05/13 13:28:14;;;;;;;9.18;1.88;;;18.30;92.60;;;;;;5084507;28;20106;-76
2022/05/13 13:30:45;;;;;;;5.55;1.40;;;18.40;92.30;;;;;;5054041;28;20049;-75
2022/05/13 13:33:11;;;;;;;;;;;18.40;91.10;;;;;;5088104;28;20117;-76
2022/05/13 13:35:43;;;;;;;5.70;1.50;;;18.30;91.40;;;;;;5070951;28;20306;-75